createdAt,value
2023-05-27T00:02:00.466Z,4.93
2023-05-27T00:05:02.501Z,5.60
2023-05-27T00:08:04.421Z,5.35
2023-05-27T00:11:06.099Z,5.78
2023-05-27T00:14:07.664Z,6.35
2023-05-27T00:17:15.073Z,5.47
2023-05-27T00:20:17.193Z,4.55
2023-05-27T00:23:18.814Z,4.82
2023-05-27T00:26:20.577Z,5.60
2023-05-27T00:29:26.049Z,5.93
2023-05-27T00:32:27.631Z,4.78
2023-05-27T00:35:29.985Z,6.68
2023-05-27T00:38:31.551Z,4.40
2023-05-27T00:41:33.630Z,5.47
2023-05-27T00:44:35.575Z,4.28
2023-05-27T00:47:37.255Z,4.85
2023-05-27T00:50:38.824Z,4.00
2023-05-27T00:53:42.396Z,6.00
2023-05-27T00:56:44.903Z,4.40
2023-05-27T00:59:47.599Z,4.88
2023-05-27T01:02:50.819Z,4.32
2023-05-27T01:06:01.383Z,6.22
2023-05-27T01:09:16.632Z,5.35
2023-05-27T01:12:39.964Z,4.13
2023-05-27T01:15:42.291Z,5.18
2023-05-27T01:18:45.962Z,4.20
2023-05-27T01:21:51.719Z,5.45
2023-05-27T01:24:54.244Z,5.43
2023-05-27T01:27:57.198Z,4.07
2023-05-27T01:31:14.416Z,5.47
2023-05-27T01:34:22.074Z,4.38
2023-05-27T01:37:26.771Z,4.07
2023-05-27T01:40:29.573Z,5.05
2023-05-27T01:43:32.122Z,4.82
2023-05-27T01:46:33.741Z,3.78
2023-05-27T01:49:36.312Z,4.25
2023-05-27T01:52:37.964Z,4.10
2023-05-27T01:55:39.500Z,5.70
2023-05-27T01:58:41.055Z,5.15
2023-05-27T02:01:43.180Z,4.63
2023-05-27T02:04:44.715Z,4.40
2023-05-27T02:07:46.248Z,6.05
2023-05-27T02:10:47.787Z,4.43
2023-05-27T02:13:50.551Z,5.75
2023-05-27T02:16:52.591Z,4.10
2023-05-27T02:19:54.238Z,3.72
2023-05-27T02:22:55.847Z,4.50
2023-05-27T02:25:57.553Z,4.60
2023-05-27T02:28:59.098Z,4.88
2023-05-27T02:32:01.876Z,4.10
2023-05-27T02:35:03.909Z,4.57
2023-05-27T02:38:05.701Z,4.85
2023-05-27T02:41:07.359Z,3.80
2023-05-27T02:44:09.925Z,4.10
2023-05-27T02:47:11.957Z,5.03
2023-05-27T02:50:14.801Z,4.28
2023-05-27T02:53:16.385Z,4.40
2023-05-27T02:56:19.051Z,5.78
2023-05-27T02:59:21.025Z,5.15
2023-05-27T03:02:22.667Z,5.05
2023-05-27T03:05:24.356Z,3.95
2023-05-27T03:08:25.879Z,3.45
2023-05-27T03:11:28.077Z,4.22
2023-05-27T03:14:29.698Z,4.10
2023-05-27T03:17:31.256Z,4.00
2023-05-27T03:20:33.012Z,4.30
2023-05-27T03:23:34.796Z,4.60
2023-05-27T03:26:36.552Z,5.15
2023-05-27T03:29:41.638Z,3.83
2023-05-27T03:32:43.223Z,5.60
2023-05-27T03:35:45.063Z,4.05
2023-05-27T03:38:46.702Z,4.45
2023-05-27T03:41:48.513Z,4.80
2023-05-27T03:44:50.150Z,2.92
2023-05-27T03:47:51.976Z,4.80
2023-05-27T03:50:55.559Z,4.60
2023-05-27T03:53:58.596Z,3.50
2023-05-27T03:57:00.168Z,4.20
2023-05-27T04:00:01.776Z,5.40
2023-05-27T04:03:09.502Z,3.70
2023-05-27T04:06:11.316Z,3.50
2023-05-27T04:09:14.408Z,4.38
2023-05-27T04:12:17.209Z,4.05
2023-05-27T04:15:18.840Z,3.95
2023-05-27T04:18:20.940Z,3.55
2023-05-27T04:21:22.466Z,3.42
2023-05-27T04:24:24.936Z,3.80
2023-05-27T04:27:27.784Z,4.35
2023-05-27T04:30:29.316Z,3.75
2023-05-27T04:33:31.768Z,3.53
2023-05-27T04:36:35.417Z,3.03
2023-05-27T04:39:46.453Z,3.80
2023-05-27T04:42:48.577Z,3.25
2023-05-27T04:45:50.410Z,3.65
2023-05-27T04:48:53.890Z,5.25
2023-05-27T04:51:55.603Z,3.65
2023-05-27T04:54:57.192Z,3.05
2023-05-27T04:58:10.027Z,4.05
2023-05-27T05:01:18.159Z,4.28
2023-05-27T05:04:27.119Z,4.70
2023-05-27T05:07:34.234Z,3.55
2023-05-27T05:10:36.350Z,5.63
2023-05-27T05:13:39.671Z,3.47
2023-05-27T05:16:41.332Z,4.57
2023-05-27T05:19:45.032Z,3.53
2023-05-27T05:22:46.897Z,5.93
2023-05-27T05:25:55.357Z,4.50
2023-05-27T05:28:57.211Z,6.43
2023-05-27T05:31:59.227Z,5.60
2023-05-27T05:35:03.048Z,3.67
2023-05-27T05:38:04.841Z,3.45
2023-05-27T05:41:06.412Z,6.57
2023-05-27T05:44:11.911Z,3.80
2023-05-27T05:47:13.473Z,4.15
2023-05-27T05:50:16.215Z,3.53
2023-05-27T05:53:18.106Z,3.63
2023-05-27T05:56:20.992Z,5.13
2023-05-27T05:59:22.904Z,5.35
2023-05-27T06:02:26.398Z,2.90
2023-05-27T06:05:28.486Z,5.43
2023-05-27T06:08:30.183Z,3.13
2023-05-27T06:11:38.346Z,4.55
2023-05-27T06:14:40.469Z,3.50
2023-05-27T06:17:42.268Z,5.18
2023-05-27T06:20:43.986Z,3.35
2023-05-27T06:23:45.846Z,4.18
2023-05-27T06:26:52.218Z,3.30
2023-05-27T06:29:53.998Z,5.60
2023-05-27T06:33:06.765Z,6.05
2023-05-27T06:36:08.794Z,4.65
2023-05-27T06:39:10.637Z,5.10
2023-05-27T06:42:13.986Z,3.80
2023-05-27T06:45:18.111Z,3.85
2023-05-27T06:48:23.187Z,3.58
2023-05-27T06:51:24.838Z,4.05
2023-05-27T06:54:28.878Z,4.45
2023-05-27T06:57:43.827Z,3.75
2023-05-27T07:00:51.241Z,4.75
2023-05-27T07:04:08.301Z,5.00
2023-05-27T07:07:19.934Z,5.05
2023-05-27T07:10:21.845Z,4.47
2023-05-27T07:13:23.443Z,3.28
2023-05-27T07:16:28.196Z,3.15
2023-05-27T07:19:31.345Z,9.88
2023-05-27T07:22:37.233Z,3.50
2023-05-27T07:25:39.020Z,7.20
2023-05-27T07:28:40.597Z,3.80
2023-05-27T07:31:55.451Z,3.72
2023-05-27T07:35:03.635Z,4.30
2023-05-27T07:38:05.282Z,4.25
2023-05-27T07:41:06.844Z,4.15
2023-05-27T07:44:08.503Z,5.75
2023-05-27T07:47:10.617Z,5.43
2023-05-27T07:50:12.246Z,4.15
2023-05-27T07:53:18.537Z,4.35
2023-05-27T07:56:20.185Z,4.05
2023-05-27T07:59:21.768Z,8.27
2023-05-27T08:02:23.662Z,5.13
2023-05-27T08:05:26.337Z,6.57
2023-05-27T08:08:46.540Z,5.70
2023-05-27T08:12:09.353Z,6.97
2023-05-27T08:15:24.327Z,4.15
2023-05-27T08:18:38.511Z,5.57
2023-05-27T08:21:44.092Z,4.18
2023-05-27T08:25:06.363Z,6.97
2023-05-27T08:28:37.957Z,6.90
2023-05-27T08:32:02.317Z,3.97
2023-05-27T08:35:04.125Z,4.82
2023-05-27T08:38:06.260Z,6.22
2023-05-27T08:41:13.478Z,8.60
2023-05-27T08:47:20.882Z,6.10
2023-05-27T08:50:22.997Z,5.82
2023-05-27T08:53:24.929Z,5.65
2023-05-27T08:56:31.413Z,5.05
2023-05-27T08:59:33.242Z,8.07
2023-05-27T09:02:34.955Z,4.28
2023-05-27T09:05:37.234Z,5.78
2023-05-27T09:08:50.264Z,5.57
2023-05-27T09:11:52.577Z,6.10
2023-05-27T09:14:57.016Z,6.60
2023-05-27T09:21:05.072Z,5.43
2023-05-27T09:24:06.706Z,7.47
2023-05-27T09:27:10.463Z,4.63
2023-05-27T09:30:12.686Z,7.63
2023-05-27T09:33:14.232Z,5.78
2023-05-27T09:36:21.931Z,5.63
2023-05-27T09:39:23.702Z,4.97
2023-05-27T09:42:25.769Z,6.28
2023-05-27T09:45:29.084Z,7.03
2023-05-27T09:48:32.548Z,4.40
2023-05-27T09:51:34.678Z,5.28
2023-05-27T09:54:37.327Z,6.82
2023-05-27T09:57:39.998Z,7.38
2023-05-27T10:00:42.699Z,6.38
2023-05-27T10:03:47.785Z,8.65
2023-05-27T10:06:51.099Z,7.75
2023-05-27T10:09:53.031Z,6.88
2023-05-27T10:12:55.717Z,9.55
2023-05-27T10:15:57.293Z,8.45
2023-05-27T10:18:59.270Z,7.75
2023-05-27T10:22:11.091Z,5.65
2023-05-27T10:25:14.235Z,7.55
2023-05-27T10:28:26.405Z,9.63
2023-05-27T10:31:30.552Z,9.43
2023-05-27T10:34:42.851Z,10.25
2023-05-27T10:37:44.738Z,10.10
2023-05-27T10:40:49.273Z,9.25
2023-05-27T10:43:58.567Z,10.02
2023-05-27T10:47:29.432Z,9.10
2023-05-27T10:50:35.723Z,10.10
2023-05-27T10:53:38.273Z,10.57
2023-05-27T10:56:52.003Z,9.20
2023-05-27T10:59:58.503Z,9.70
2023-05-27T11:03:01.105Z,11.38
2023-05-27T11:06:06.671Z,7.20
2023-05-27T11:09:08.363Z,7.53
2023-05-27T11:12:13.920Z,6.78
2023-05-27T11:15:15.471Z,7.23
2023-05-27T11:18:17.258Z,6.63
2023-05-27T11:21:19.093Z,5.40
2023-05-27T11:24:22.727Z,8.13
2023-05-27T11:27:24.442Z,6.53
2023-05-27T11:30:26.215Z,8.13
2023-05-27T11:33:37.449Z,7.00
2023-05-27T11:36:39.607Z,9.98
2023-05-27T11:39:52.361Z,6.38
2023-05-27T11:42:53.948Z,8.63
2023-05-27T11:46:04.447Z,8.73
2023-05-27T11:49:15.751Z,6.22
2023-05-27T11:52:18.148Z,6.57
2023-05-27T11:55:19.662Z,6.65
2023-05-27T11:58:21.179Z,8.05
2023-05-27T12:01:23.059Z,9.63
2023-05-27T12:04:24.572Z,6.70
2023-05-27T12:07:26.193Z,7.68
2023-05-27T12:10:27.745Z,7.57
2023-05-27T12:13:30.626Z,7.25
2023-05-27T12:16:32.750Z,8.55
2023-05-27T12:19:35.445Z,6.78
2023-05-27T12:22:37.072Z,6.63
2023-05-27T12:25:38.757Z,7.65
2023-05-27T12:28:40.935Z,7.20
2023-05-27T12:31:42.470Z,6.40
2023-05-27T12:34:44.775Z,7.50
2023-05-27T12:37:46.385Z,6.43
2023-05-27T12:40:49.644Z,7.88
2023-05-27T12:43:51.162Z,7.45
2023-05-27T12:46:52.757Z,8.35
2023-05-27T12:49:54.293Z,6.72
2023-05-27T12:52:55.857Z,8.90
2023-05-27T12:55:57.342Z,7.78
2023-05-27T12:58:58.900Z,7.00
2023-05-27T13:02:00.898Z,6.32
2023-05-27T13:05:02.496Z,7.07
2023-05-27T13:08:08.400Z,6.43
2023-05-27T13:11:09.924Z,8.32
2023-05-27T13:14:11.422Z,5.45
2023-05-27T13:17:12.947Z,6.32
2023-05-27T13:20:15.678Z,6.97
2023-05-27T13:23:17.379Z,6.57
2023-05-27T13:26:19.042Z,8.20
2023-05-27T13:29:20.561Z,7.78
2023-05-27T13:32:22.156Z,6.40
2023-05-27T13:35:24.244Z,6.13
2023-05-27T13:38:25.886Z,7.30
2023-05-27T13:41:27.972Z,8.98
2023-05-27T13:44:29.496Z,7.90
2023-05-27T13:47:31.407Z,8.35
2023-05-27T13:50:33.674Z,7.72
2023-05-27T13:53:35.191Z,9.43
2023-05-27T13:56:36.847Z,7.28
2023-05-27T13:59:38.394Z,8.40
2023-05-27T14:02:39.931Z,8.15
2023-05-27T14:05:41.532Z,5.78
2023-05-27T14:08:43.084Z,8.13
2023-05-27T14:11:44.651Z,6.60
2023-05-27T14:14:46.208Z,7.63
2023-05-27T14:17:47.828Z,6.78
2023-05-27T14:20:50.015Z,5.55
2023-05-27T14:23:51.625Z,6.20
2023-05-27T14:26:53.126Z,7.25
2023-05-27T14:29:54.637Z,7.03
2023-05-27T14:32:56.301Z,5.57
2023-05-27T14:35:58.106Z,6.55
2023-05-27T14:38:59.868Z,7.28
2023-05-27T14:42:01.445Z,8.05
2023-05-27T14:45:03.092Z,8.75
2023-05-27T14:48:04.769Z,6.72
2023-05-27T14:51:06.641Z,6.35
2023-05-27T14:54:09.228Z,7.47
2023-05-27T14:57:10.761Z,7.43
2023-05-27T15:00:12.957Z,6.47
2023-05-27T15:03:14.660Z,6.88
2023-05-27T15:06:16.267Z,5.00
2023-05-27T15:09:18.256Z,6.03
2023-05-27T15:12:19.820Z,5.50
2023-05-27T15:15:25.215Z,4.63
2023-05-27T15:18:26.854Z,7.03
2023-05-27T15:21:28.458Z,7.30
2023-05-27T15:24:30.191Z,8.43
2023-05-27T15:27:31.985Z,5.60
2023-05-27T15:30:33.515Z,6.53
2023-05-27T15:33:35.475Z,5.18
2023-05-27T15:36:37.024Z,7.07
2023-05-27T15:39:38.649Z,5.82
2023-05-27T15:42:41.110Z,7.50
2023-05-27T15:45:56.025Z,8.10
2023-05-27T15:49:04.304Z,6.90
2023-05-27T15:52:11.745Z,7.63
2023-05-27T15:55:13.336Z,6.35
2023-05-27T15:58:14.904Z,5.68
2023-05-27T16:01:16.475Z,7.75
2023-05-27T16:04:18.065Z,5.65
2023-05-27T16:07:19.669Z,5.00
2023-05-27T16:10:21.552Z,7.53
2023-05-27T16:13:25.498Z,8.02
2023-05-27T16:16:27.170Z,7.72
2023-05-27T16:19:28.779Z,5.68
2023-05-27T16:22:30.410Z,6.75
2023-05-27T16:25:31.935Z,6.97
2023-05-27T16:28:33.510Z,5.70
2023-05-27T16:31:35.210Z,7.13
2023-05-27T16:34:36.984Z,4.30
2023-05-27T16:37:39.115Z,6.35
2023-05-27T16:40:40.674Z,7.03
2023-05-27T16:43:42.320Z,9.95
2023-05-27T16:46:44.034Z,6.63
2023-05-27T16:49:45.732Z,5.65
2023-05-27T16:52:47.237Z,4.97
2023-05-27T16:55:50.063Z,5.90
2023-05-27T16:58:55.576Z,6.55
2023-05-27T17:01:57.189Z,5.57
2023-05-27T17:04:58.884Z,4.40
2023-05-27T17:08:01.036Z,4.65
2023-05-27T17:11:02.644Z,6.88
2023-05-27T17:14:04.202Z,6.53
2023-05-27T17:17:06.028Z,7.53
2023-05-27T17:20:09.575Z,4.55
2023-05-27T17:23:11.189Z,6.82
2023-05-27T17:26:14.357Z,6.30
2023-05-27T17:29:16.613Z,6.43
2023-05-27T17:32:18.129Z,5.30
2023-05-27T17:35:20.483Z,5.10
2023-05-27T17:38:25.054Z,6.93
2023-05-27T17:41:27.553Z,7.25
2023-05-27T17:44:29.431Z,7.30
2023-05-27T17:47:30.963Z,7.20
2023-05-27T17:50:32.515Z,6.47
2023-05-27T17:53:36.444Z,4.53
2023-05-27T17:56:38.039Z,5.18
2023-05-27T17:59:39.630Z,5.20
2023-05-27T18:02:41.275Z,5.22
2023-05-27T18:05:43.055Z,8.55
2023-05-27T18:08:44.765Z,5.18
2023-05-27T18:11:46.571Z,5.80
2023-05-27T18:14:48.084Z,5.65
2023-05-27T18:17:49.709Z,4.28
2023-05-27T18:20:54.000Z,4.47
2023-05-27T18:23:55.713Z,4.85
2023-05-27T18:26:57.222Z,5.00
2023-05-27T18:29:58.800Z,6.38
2023-05-27T18:33:01.037Z,4.68
2023-05-27T18:36:02.668Z,5.18
2023-05-27T18:39:04.192Z,5.65
2023-05-27T18:42:06.422Z,4.70
2023-05-27T18:45:08.801Z,4.35
2023-05-27T18:48:10.330Z,4.80
2023-05-27T18:51:11.854Z,5.60
2023-05-27T18:54:13.453Z,4.90
2023-05-27T18:57:18.157Z,5.22
2023-05-27T19:00:20.107Z,7.03
2023-05-27T19:03:21.948Z,4.63
2023-05-27T19:06:23.561Z,4.53
2023-05-27T19:09:25.129Z,4.60
2023-05-27T19:12:27.225Z,4.55
2023-05-27T19:15:28.781Z,4.90
2023-05-27T19:18:30.600Z,4.85
2023-05-27T19:21:33.174Z,3.95
2023-05-27T19:24:36.987Z,5.35
2023-05-27T19:27:38.498Z,3.83
2023-05-27T19:30:40.100Z,4.20
2023-05-27T19:33:41.650Z,5.38
2023-05-27T19:36:43.506Z,4.50
2023-05-27T19:39:45.053Z,4.05
2023-05-27T19:42:46.796Z,5.80
2023-05-27T19:45:48.285Z,4.43
2023-05-27T19:48:50.067Z,4.93
2023-05-27T19:51:51.648Z,5.53
2023-05-27T19:54:53.232Z,3.63
2023-05-27T19:57:54.853Z,4.97
2023-05-27T20:00:58.689Z,3.92
2023-05-27T20:04:01.034Z,4.60
2023-05-27T20:07:02.681Z,4.35
2023-05-27T20:10:05.413Z,4.63
2023-05-27T20:13:06.923Z,5.60
2023-05-27T20:16:08.524Z,5.30
2023-05-27T20:19:10.072Z,3.58
2023-05-27T20:22:11.697Z,4.70
2023-05-27T20:25:13.392Z,5.18
2023-05-27T20:28:15.418Z,5.32
2023-05-27T20:31:17.218Z,5.50
2023-05-27T20:34:18.790Z,5.60
2023-05-27T20:37:20.701Z,5.85
2023-05-27T20:40:22.487Z,5.43
2023-05-27T20:43:24.024Z,6.13
2023-05-27T20:46:27.422Z,6.50
2023-05-27T20:49:32.052Z,5.18
2023-05-27T20:52:33.642Z,5.78
2023-05-27T20:55:36.163Z,8.48
2023-05-27T20:58:37.773Z,4.95
2023-05-27T21:01:40.066Z,5.50
2023-05-27T21:04:42.735Z,4.95
2023-05-27T21:07:44.413Z,4.57
2023-05-27T21:10:46.419Z,5.80
2023-05-27T21:13:47.912Z,6.47
2023-05-27T21:16:49.696Z,5.85
2023-05-27T21:19:52.713Z,5.57
2023-05-27T21:22:54.974Z,4.95
2023-05-27T21:25:56.610Z,5.57
2023-05-27T21:28:58.133Z,4.60
2023-05-27T21:31:59.739Z,5.65
2023-05-27T21:35:01.380Z,4.47
2023-05-27T21:38:06.771Z,4.72
2023-05-27T21:41:08.537Z,4.65
2023-05-27T21:44:10.213Z,5.13
2023-05-27T21:47:11.855Z,3.95
2023-05-27T21:50:17.325Z,4.80
2023-05-27T21:53:18.882Z,4.20
2023-05-27T21:56:20.517Z,4.93
2023-05-27T21:59:22.010Z,4.28
2023-05-27T22:02:24.191Z,5.00
2023-05-27T22:05:25.922Z,5.13
2023-05-27T22:08:29.887Z,4.05
2023-05-27T22:11:31.439Z,4.28
2023-05-27T22:14:33.023Z,6.85
2023-05-27T22:17:34.594Z,4.93
2023-05-27T22:20:36.242Z,4.28
2023-05-27T22:23:37.949Z,4.15
2023-05-27T22:26:39.597Z,3.92
2023-05-27T22:29:41.115Z,4.55
2023-05-27T22:32:42.728Z,5.38
2023-05-27T22:35:44.343Z,4.85
2023-05-27T22:38:46.243Z,4.65
2023-05-27T22:41:47.724Z,4.65
2023-05-27T22:44:49.298Z,4.20
2023-05-27T22:47:53.834Z,4.43
2023-05-27T22:50:56.079Z,4.88
2023-05-27T22:53:57.638Z,5.55
2023-05-27T22:56:59.196Z,5.82
2023-05-27T23:00:00.812Z,6.28
2023-05-27T23:03:02.548Z,3.78
2023-05-27T23:06:04.296Z,4.03
2023-05-27T23:09:05.960Z,4.68
2023-05-27T23:12:07.647Z,5.22
2023-05-27T23:15:09.364Z,5.45
2023-05-27T23:18:11.675Z,6.45
2023-05-27T23:21:14.901Z,5.68
2023-05-27T23:24:16.519Z,4.28
2023-05-27T23:27:18.090Z,5.18
2023-05-27T23:30:19.664Z,3.83
2023-05-27T23:33:21.257Z,4.60
2023-05-27T23:36:22.791Z,4.28
2023-05-27T23:39:24.353Z,6.45
2023-05-27T23:42:25.881Z,4.97
2023-05-27T23:45:27.406Z,4.80
2023-05-27T23:48:28.974Z,4.30
2023-05-27T23:51:30.580Z,3.80
2023-05-27T23:54:34.369Z,4.20
2023-05-27T23:57:35.963Z,6.05
